Meteo Giornale » Osservazioni meteo Italia » Treviso-S Angelo

ore: 20:50 - Osservazioni Meteo Treviso-S Angelo
Lat. 45° 39' N Lon. 12° 11' E Alt. 18 metri s.l.m.

sereno Europe/Rome

19 °C

Sereno

Temp. 24 Ore

12 °C

24 °C

Nord

5.5 Km/h

Dew point 11 °C

Umidità 59 %

Visibilità  10 Km

Il sole sorge alle ore 06:09

Il sole tramonta alle ore 20:09

Data e Ora Cielo e Fenomeni T °C DP °C Um. % Pres. hPa Vis. km Vento km/h
Oggi h: 20:50 sereno Sereno 19 11 59 1015 10 N 5.5
Oggi h: 20:20 sereno Sereno 19 12 63 1015 10 E/SE 7.4
Oggi h: 19:50 sereno Sereno 20 12 59 1015 10 S/SE 7.4
Oggi h: 19:20 sereno Sereno 21 12 56 1015 10 SE 9.3
Oggi h: 18:20 sereno Sereno 22 9 43 1015 10 S/SE 11.1
Oggi h: 17:50 sereno Sereno 23 12 49 1015 10 S/SE 9.3
Oggi h: 17:20 sereno Sereno 23 12 49 1015 10 S/SE 13
Oggi h: 16:50 sereno Sereno 24 10 41 1015 10 SE 13
Oggi h: 16:20 sereno Sereno 24 9 38 1015 10 SE 11.1
Oggi h: 15:50 sereno Sereno 24 8 35 1016 10 S/SE 7.4
Oggi h: 15:20 sereno Sereno 24 8 35 1016 10 N 7.4
Oggi h: 14:50 sereno Sereno 24 9 38 1016 10 E 7.4
Oggi h: 14:20 sereno Sereno 24 9 38 1017 10 SE 9.3
Oggi h: 13:50 sereno Sereno 24 9 38 1017 10 S/SE 9.3
Oggi h: 13:20 sereno Sereno 23 10 43 1017 10 N 7.4
Oggi h: 12:50 sereno Sereno 22 10 46 1017 10 E 9.3
Oggi h: 12:20 sereno Sereno 22 9 43 1017 10 S/SE 7.4
Oggi h: 11:50 sereno Sereno 21 11 52 1018 10 N 7.4
Oggi h: 11:20 sereno Sereno 21 11 52 1018 10 N 5.5
Oggi h: 10:50 sereno Sereno 20 11 56 1018 10 N 5.5
Oggi h: 10:20 sereno Sereno 20 13 64 1018 10 N 3.7
Oggi h: 09:50 sereno Sereno 18 13 72 1018 10 N 5.5
Oggi h: 09:20 sereno Sereno 17 13 77 1018 10 N 3.7
Oggi h: 08:50 sereno Sereno 16 12 77 1018 10 N 5.5
Oggi h: 08:20 sereno Sereno 15 11 76 1018 10 N 5.5
Oggi h: 07:50 sereno Sereno 14 10 76 1018 10 N 7.4
Oggi h: 07:20 sereno Sereno 13 10 81 1018 10 N 3.7
Oggi h: 06:50 sereno Sereno 12 10 87 1018 10 N 5.5
Oggi h: 05:50 sereno Sereno 12 10 87 1017 10 N 3.7
Oggi h: 05:20 sereno Sereno 13 11 87 1017 10 N 5.5
Oggi h: 04:50 sereno Sereno 13 11 87 1017 10 N 5.5
Oggi h: 04:20 sereno Sereno 13 11 87 1018 10 N 3.7
Oggi h: 03:50 sereno Sereno 13 10 81 1017 10 N 5.5
Oggi h: 03:20 sereno Sereno 13 11 87 1017 10 N 7.4
Oggi h: 02:50 sereno Sereno 14 12 87 1017 10 N 5.5
Oggi h: 02:20 sereno Sereno 14 12 87 1017 10 N 3.7
Oggi h: 01:50 sereno Sereno 14 12 87 1017 10 N 3.7
Oggi h: 01:20 sereno Sereno 14 12 87 1018 10 N 3.7
Oggi h: 00:50 sereno Sereno 15 12 82 1018 10 N 3.7
Oggi h: 00:20 sereno Sereno 15 13 87 1018 10 N 1.8
Ieri h: 23:50 sereno Sereno 15 13 87 1018 10 N 1.8
Ieri h: 23:20 sereno Sereno 15 13 87 1018 10 N 1.8
Ieri h: 22:50 sereno Sereno 16 12 77 1018 10 N 1.8
Ieri h: 22:20 sereno Sereno 17 13 77 1018 10 N 1.8
Ieri h: 21:50 sereno Sereno 17 13 77 1018 10 N 3.7